Terminal Aerodrome Forecast
Issued by NWS

Home | Current Version | Previous Version | Text Only | Print | Product List | Glossary On
Versions: 1 2 3 4 5 6 7 8 9 10 11 12 13 14 15 16 17 18 19 20 21 22 23 24 25 26
423
FTUS43 KSGF 230119 AAB
TAFJLN
TAF AMD
KJLN 230119Z 2301/2324 35012G23KT P6SM OVC008
     FM231000 VRB04KT 4SM BR OVC015
     FM231400 VRB04KT P6SM SCT015 BKN250
     FM231800 VRB04KT P6SM SKC=

USA.gov is the U.S. government's official web portal to all federal, state and local government web resources and services.